createdAt,value
2018-02-27T21:02:39.079Z,-7.72
2018-02-27T21:03:44.570Z,-7.62
2018-02-27T21:05:43.113Z,-7.75
2018-02-27T21:06:48.658Z,-7.71
2018-02-27T21:07:54.179Z,-7.68
2018-02-27T21:08:59.630Z,-7.71
2018-02-27T21:10:05.406Z,-7.71
2018-02-27T21:11:10.748Z,-7.75
2018-02-27T21:12:16.232Z,-7.72
2018-02-27T21:13:21.803Z,-7.75
2018-02-27T21:14:27.452Z,-7.76
2018-02-27T21:15:32.887Z,-7.90
2018-02-27T21:16:38.390Z,-7.87
2018-02-27T21:17:43.966Z,-7.96
2018-02-27T21:18:49.309Z,-7.93
2018-02-27T21:19:54.822Z,-7.93
2018-02-27T21:21:00.348Z,-7.93
2018-02-27T21:22:05.872Z,-7.90
2018-02-27T21:23:11.443Z,-7.96
2018-02-27T21:24:16.902Z,-7.99
2018-02-27T21:25:22.432Z,-8.02
2018-02-27T21:26:28.174Z,-7.99
2018-02-27T21:27:33.466Z,-7.99
2018-02-27T21:28:39.054Z,-7.97
2018-02-27T21:29:44.504Z,-8.01
2018-02-27T21:30:50.023Z,-7.97
2018-02-27T21:31:55.668Z,-7.99
2018-02-27T21:33:01.071Z,-8.05
2018-02-27T21:34:06.588Z,-8.01
2018-02-27T21:35:12.225Z,-8.01
2018-02-27T21:36:17.624Z,-7.99
2018-02-27T21:37:23.150Z,-7.94
2018-02-27T21:38:28.666Z,-7.96
2018-02-27T21:39:34.189Z,-8.01
2018-02-27T21:40:39.708Z,-7.97
2018-02-27T21:41:45.227Z,-8.02
2018-02-27T21:42:50.753Z,-7.97
2018-02-27T21:43:56.405Z,-8.16
2018-02-27T21:45:02.838Z,-8.19
2018-02-27T21:46:07.311Z,-8.13
2018-02-27T21:47:12.830Z,-8.09
2018-02-27T21:48:18.351Z,-8.11
2018-02-27T21:49:23.871Z,-8.16
2018-02-27T21:50:29.392Z,-8.18
2018-02-27T21:51:34.920Z,-8.16
2018-02-27T21:52:40.434Z,-8.19
2018-02-27T21:53:45.954Z,-8.27
2018-02-27T21:54:51.476Z,-8.18
2018-02-27T21:55:56.997Z,-8.26
2018-02-27T21:57:02.516Z,-8.19
2018-02-27T21:58:08.042Z,-8.21
2018-02-27T21:59:13.560Z,-8.34
2018-02-27T22:00:19.077Z,-8.31
2018-02-27T22:01:24.603Z,-8.30
2018-02-27T22:02:30.129Z,-8.36
2018-02-27T22:03:35.641Z,-8.37
2018-02-27T22:04:41.161Z,-8.34
2018-02-27T22:05:46.682Z,-8.40
2018-02-27T22:06:52.205Z,-8.31
2018-02-27T22:07:57.726Z,-8.34
2018-02-27T22:09:03.246Z,-8.30
2018-02-27T22:10:08.762Z,-8.33
2018-02-27T22:11:14.285Z,-8.37
2018-02-27T22:12:19.837Z,-8.33
2018-02-27T22:13:25.325Z,-8.39
2018-02-27T22:14:30.844Z,-8.37
2018-02-27T22:15:36.371Z,-8.39
2018-02-27T22:16:41.889Z,-8.47
2018-02-27T22:17:47.412Z,-8.37
2018-02-27T22:18:52.930Z,-8.52
2018-02-27T22:19:58.456Z,-8.48
2018-02-27T22:21:03.977Z,-8.51
2018-02-27T22:22:09.492Z,-8.52
2018-02-27T22:23:15.019Z,-8.60
2018-02-27T22:24:20.534Z,-8.60
2018-02-27T22:25:26.058Z,-8.58
2018-02-27T22:26:31.576Z,-8.62
2018-02-27T22:27:37.104Z,-8.60
2018-02-27T22:28:42.623Z,-8.69
2018-02-27T22:29:48.249Z,-8.73
2018-02-27T22:30:53.659Z,-8.80
2018-02-27T22:31:59.185Z,-8.72
2018-02-27T22:33:04.704Z,-8.65
2018-02-27T22:34:10.227Z,-8.68
2018-02-27T22:35:15.746Z,-8.66
2018-02-27T22:36:21.266Z,-8.57
2018-02-27T22:37:26.788Z,-8.60
2018-02-27T22:38:32.310Z,-8.54
2018-02-27T22:39:37.826Z,-8.65
2018-02-27T22:40:43.354Z,-8.57
2018-02-27T22:41:48.868Z,-8.63
2018-02-27T22:42:54.393Z,-8.55
2018-02-27T22:43:59.917Z,-8.63
2018-02-27T22:45:05.432Z,-8.65
2018-02-27T22:46:10.958Z,-8.68
2018-02-27T22:47:16.478Z,-8.68
2018-02-27T22:48:22.023Z,-8.68
2018-02-27T22:49:27.521Z,-8.72
2018-02-27T22:50:33.045Z,-8.63
2018-02-27T22:51:38.566Z,-8.70
2018-02-27T22:52:44.083Z,-8.69
2018-02-27T22:53:49.622Z,-8.66
2018-02-27T22:54:55.124Z,-8.65
2018-02-27T22:56:00.646Z,-8.58
2018-02-27T22:57:06.167Z,-8.55
2018-02-27T22:58:11.687Z,-8.58
2018-02-27T22:59:17.207Z,-8.65
2018-02-27T23:00:22.734Z,-8.69
2018-02-27T23:01:28.255Z,-8.78
2018-02-27T23:02:33.777Z,-8.76
2018-02-27T23:03:39.298Z,-8.73
2018-02-27T23:04:44.816Z,-8.81
2018-02-27T23:05:50.333Z,-8.81
2018-02-27T23:06:55.868Z,-8.87
2018-02-27T23:08:01.384Z,-8.91
2018-02-27T23:09:06.898Z,-8.84
2018-02-27T23:10:12.416Z,-8.89
2018-02-27T23:11:17.940Z,-8.86
2018-02-27T23:12:23.466Z,-8.81
2018-02-27T23:13:28.992Z,-8.89
2018-02-27T23:14:34.500Z,-8.83
2018-02-27T23:15:40.030Z,-8.83
2018-02-27T23:16:45.558Z,-8.81
2018-02-27T23:17:51.076Z,-8.83
2018-02-27T23:18:56.588Z,-8.91
2018-02-27T23:20:02.114Z,-8.86
2018-02-27T23:21:07.637Z,-8.80
2018-02-27T23:22:13.154Z,-8.83
2018-02-27T23:23:18.674Z,-8.90
2018-02-27T23:24:24.201Z,-8.90
2018-02-27T23:25:32.479Z,-8.89
2018-02-27T23:26:35.749Z,-8.78
2018-02-27T23:27:40.798Z,-8.87
2018-02-27T23:28:46.308Z,-8.83
2018-02-27T23:29:51.797Z,-8.87
2018-02-27T23:30:57.366Z,-8.83
2018-02-27T23:32:02.850Z,-8.87
2018-02-27T23:33:08.361Z,-8.84
2018-02-27T23:34:13.878Z,-8.96
2018-02-27T23:35:19.412Z,-8.96
2018-02-27T23:36:24.929Z,-9.01
2018-02-27T23:37:30.447Z,-8.94
2018-02-27T23:38:35.968Z,-8.94
2018-02-27T23:39:41.498Z,-9.04
2018-02-27T23:40:47.007Z,-9.01
2018-02-27T23:41:52.540Z,-9.00
2018-02-27T23:42:58.073Z,-9.07
2018-02-27T23:44:03.572Z,-9.07
2018-02-27T23:45:09.095Z,-9.05
2018-02-27T23:46:14.614Z,-8.98
2018-02-27T23:47:20.139Z,-9.01
2018-02-27T23:48:25.655Z,-9.05
2018-02-27T23:49:31.312Z,-8.98
2018-02-27T23:50:36.701Z,-8.98
2018-02-27T23:51:42.223Z,-9.05
2018-02-27T23:52:47.816Z,-9.12
2018-02-27T23:53:53.272Z,-9.20
2018-02-27T23:54:58.787Z,-9.22
2018-02-27T23:56:04.304Z,-9.19
2018-02-27T23:57:09.832Z,-9.30
2018-02-27T23:58:15.400Z,-9.33
2018-02-27T23:59:20.873Z,-9.33
